Pereiro, Brazil
Current Conditions -  °F | °C
As of 8:00 PM on Wednesday 22 Oct 2014 (Local Time) from SBMS Reporting Station
Clear Clear  
Wind Chill: 84°   Ceiling: Unl
Heat Index: 87°   Visibility: 6mi
Dew Point: 68°   Wind: 10mph
Humidity: 58%   Direction: 50°NE
Pressure: 29.91"   Gusts: NA
Location:  6.04°S, 38.46°W
Report Text: SBMS 222300Z 05009KT CAVOK 29/20 Q1013
Loading
Personal Weather Stations






























Interactive Weather Map
Tropical Storm Tracking
New forecast layout! Learn more

10-Day Weather Forecast

Advertisements
Track Severe Weather on mobile